Time;durP1;ratioP1;P1;durP2;ratioP2;P2;SDS_P1;SDS_P2;PMS_P1;PMS_P2;Temp;Humidity;BMP_temperature;BMP_pressure;BME280_temperature;BME280_humidity;BME280_pressure;Samples;Min_cycle;Max_cycle;Signal;HPM_P1;HPM_P2
2022/10/24 00:02:17;;;;;;;0.73;0.47;;;14.50;99.90;;;;;;5035808;28;20507;-72
2022/10/24 00:04:42;;;;;;;1.05;0.60;;;14.50;99.90;;;;;;5048806;28;20124;-72
2022/10/24 00:07:09;;;;;;;1.25;0.50;;;14.50;99.90;;;;;;5027739;28;20443;-72
2022/10/24 00:09:36;;;;;;;0.93;0.40;;;14.50;99.90;;;;;;5033956;28;20167;-72
2022/10/24 00:12:02;;;;;;;1.88;0.93;;;14.50;99.90;;;;;;5035151;28;20072;-72
2022/10/24 00:14:28;;;;;;;3.20;0.38;;;14.50;99.90;;;;;;5049379;28;20087;-72
2022/10/24 00:16:54;;;;;;;1.40;0.32;;;14.50;99.90;;;;;;5049165;28;20039;-72
2022/10/24 00:19:20;;;;;;;0.40;0.30;;;14.50;99.90;;;;;;5034711;28;20037;-72
2022/10/24 00:21:47;;;;;;;0.82;0.30;;;14.40;99.90;;;;;;5030104;28;20069;-72
2022/10/24 00:24:13;;;;;;;1.05;0.40;;;14.40;99.90;;;;;;5036780;28;20045;-72
2022/10/24 00:26:38;;;;;;;2.35;0.60;;;14.50;99.90;;;;;;5054660;28;20087;-72
2022/10/24 00:29:04;;;;;;;1.83;0.30;;;14.40;99.90;;;;;;5034870;28;20407;-72
2022/10/24 00:31:30;;;;;;;1.30;0.50;;;14.40;99.90;;;;;;5042451;28;20039;-73
2022/10/24 00:33:56;;;;;;;0.63;0.35;;;14.50;99.90;;;;;;5032523;28;20793;-72
2022/10/24 00:36:23;;;;;;;1.63;0.50;;;14.50;99.90;;;;;;5035071;28;20095;-72
2022/10/24 00:38:49;;;;;;;0.90;0.40;;;14.40;99.90;;;;;;5042705;28;20111;-72
2022/10/24 00:41:20;;;;;;;1.65;0.50;;;14.50;99.90;;;;;;5033789;28;20044;-72
2022/10/24 00:43:46;;;;;;;0.70;0.50;;;14.40;99.90;;;;;;5051852;28;20439;-72
2022/10/24 00:46:13;;;;;;;0.77;0.38;;;14.40;99.90;;;;;;5026140;28;20128;-72
2022/10/24 00:48:41;;;;;;;1.52;0.32;;;14.50;99.90;;;;;;5029445;28;20503;-72
2022/10/24 00:51:29;;;;;;;2.85;0.40;;;14.40;99.90;;;;;;5036340;28;20060;-72
2022/10/24 00:54:07;;;;;;;0.57;0.32;;;14.40;99.90;;;;;;5048116;28;20037;-72
2022/10/24 00:56:48;;;;;;;2.00;0.70;;;14.50;99.90;;;;;;5035238;28;20033;-72
2022/10/24 00:59:15;;;;;;;1.98;0.45;;;14.50;99.90;;;;;;5026806;28;20545;-73
2022/10/24 01:01:42;;;;;;;1.55;0.70;;;14.40;99.90;;;;;;5037242;28;20063;-72
2022/10/24 01:04:11;;;;;;;1.70;0.52;;;14.50;99.90;;;;;;5033870;28;20491;-72
2022/10/24 01:06:45;;;;;;;0.95;0.40;;;14.50;99.90;;;;;;5029927;28;20120;-72
2022/10/24 01:09:31;;;;;;;0.93;0.40;;;14.50;99.90;;;;;;5033533;28;20140;-72
2022/10/24 01:11:59;;;;;;;;;;;14.50;99.90;;;;;;5039163;28;20503;-73
2022/10/24 01:14:57;;;;;;;0.43;0.20;;;14.50;99.90;;;;;;5031308;28;20299;-72
2022/10/24 01:17:43;;;;;;;0.73;0.38;;;14.50;99.90;;;;;;5034054;28;20033;-72
2022/10/24 01:20:18;;;;;;;1.67;0.63;;;14.60;99.90;;;;;;5031470;28;20048;-72
2022/10/24 01:23:11;;;;;;;4.80;0.82;;;14.60;99.90;;;;;;5039985;28;20045;-72
2022/10/24 01:25:50;;;;;;;0.75;0.45;;;14.60;99.90;;;;;;5054642;28;20545;-72
2022/10/24 01:28:26;;;;;;;2.17;0.50;;;14.60;99.90;;;;;;5046227;28;20037;-72
2022/10/24 01:30:58;;;;;;;;;;;14.60;99.90;;;;;;5030423;28;20041;-72
2022/10/24 01:33:35;;;;;;;1.13;0.60;;;14.70;99.90;;;;;;5033042;28;19925;-72
2022/10/24 01:36:15;;;;;;;1.85;0.68;;;14.70;99.90;;;;;;5041020;28;20041;-72
2022/10/24 01:38:46;;;;;;;2.60;0.70;;;14.70;99.90;;;;;;5023468;28;20488;-72
2022/10/24 01:41:16;;;;;;;0.80;0.30;;;14.60;99.90;;;;;;5036162;28;20037;-72
2022/10/24 01:44:06;;;;;;;3.38;0.60;;;14.70;99.90;;;;;;5046071;28;20323;-72
2022/10/24 01:46:41;;;;;;;2.50;0.95;;;14.70;99.90;;;;;;5041336;28;20415;-72
2022/10/24 01:49:16;;;;;;;2.45;0.90;;;14.80;99.90;;;;;;5049005;28;20072;-72
2022/10/24 01:51:43;;;;;;;2.28;0.47;;;14.80;99.90;;;;;;5031200;28;20068;-72
2022/10/24 01:54:10;;;;;;;0.88;0.40;;;14.70;99.90;;;;;;5033673;28;20044;-72
2022/10/24 01:56:36;;;;;;;1.00;0.47;;;14.70;99.90;;;;;;5026364;28;20041;-72
2022/10/24 01:59:28;;;;;;;1.92;0.50;;;14.70;99.90;;;;;;5044214;28;20033;-72
2022/10/24 02:02:02;;;;;;;1.95;0.90;;;14.70;99.90;;;;;;5036000;28;20160;-72
2022/10/24 02:04:30;;;;;;;2.40;0.60;;;14.70;99.90;;;;;;5047248;28;20045;-72
2022/10/24 02:07:00;;;;;;;3.25;0.80;;;14.70;99.90;;;;;;5037128;28;20098;-72
2022/10/24 02:09:27;;;;;;;1.92;0.55;;;14.70;99.90;;;;;;5034231;28;20056;-72
2022/10/24 02:11:56;;;;;;;1.52;0.65;;;14.70;99.90;;;;;;5035955;28;20037;-72
2022/10/24 02:14:44;;;;;;;2.10;0.28;;;14.70;99.90;;;;;;5037003;28;20060;-72
2022/10/24 02:17:10;;;;;;;1.30;0.60;;;14.70;99.90;;;;;;5036315;28;20777;-72
2022/10/24 02:19:36;;;;;;;1.13;0.50;;;14.70;99.90;;;;;;5033473;28;20777;-72
2022/10/24 02:22:29;;;;;;;0.68;0.35;;;14.80;99.90;;;;;;5034925;28;20042;-72
2022/10/24 02:25:20;;;;;;;1.50;0.63;;;14.80;99.90;;;;;;5041904;28;20094;-72
2022/10/24 02:28:11;;;;;;;5.10;0.73;;;14.80;99.90;;;;;;5031469;28;20513;-72
2022/10/24 02:30:53;;;;;;;1.85;0.50;;;14.80;99.90;;;;;;5033060;28;20513;-72
2022/10/24 02:33:19;;;;;;;1.38;0.75;;;14.80;99.90;;;;;;5028842;28;20120;-72
2022/10/24 02:35:47;;;;;;;3.58;0.60;;;14.80;99.90;;;;;;5046495;28;20041;-72
2022/10/24 02:38:34;;;;;;;3.17;0.63;;;14.80;99.90;;;;;;5043647;28;20032;-72
2022/10/24 02:41:04;;;;;;;1.67;0.73;;;14.80;99.90;;;;;;5034241;28;20049;-72
2022/10/24 02:43:31;;;;;;;5.05;0.95;;;14.80;99.90;;;;;;5031608;28;20299;-72
2022/10/24 02:45:58;;;;;;;1.48;0.70;;;14.70;99.90;;;;;;5050737;28;20159;-72
2022/10/24 02:48:27;;;;;;;0.55;0.30;;;14.80;99.90;;;;;;5023429;28;20041;-72
2022/10/24 02:50:53;;;;;;;1.98;0.63;;;14.80;99.90;;;;;;5035631;28;20108;-73
2022/10/24 02:53:23;;;;;;;2.90;0.82;;;14.70;99.90;;;;;;5034106;28;20567;-72
2022/10/24 02:55:49;;;;;;;1.52;0.55;;;14.70;99.90;;;;;;5041807;28;20033;-72
2022/10/24 02:58:15;;;;;;;0.75;0.40;;;14.70;99.90;;;;;;5048964;28;20035;-72
2022/10/24 03:00:40;;;;;;;1.98;0.60;;;14.70;99.90;;;;;;5013864;28;20503;-72
2022/10/24 03:03:06;;;;;;;1.33;0.55;;;14.70;99.90;;;;;;5030298;28;20407;-72
2022/10/24 03:05:31;;;;;;;3.08;0.60;;;14.70;99.90;;;;;;5049317;28;20044;-72
2022/10/24 03:07:57;;;;;;;1.60;0.73;;;14.80;99.90;;;;;;5036348;28;20057;-72
2022/10/24 03:10:23;;;;;;;3.58;0.95;;;14.70;99.90;;;;;;5049291;28;20123;-72
2022/10/24 03:12:48;;;;;;;5.20;0.70;;;14.70;99.90;;;;;;5048324;28;20052;-72
2022/10/24 03:15:15;;;;;;;1.00;0.63;;;14.70;99.90;;;;;;5030018;28;20026;-72
2022/10/24 03:17:41;;;;;;;1.10;0.40;;;14.70;99.90;;;;;;5031449;28;20065;-72
2022/10/24 03:20:07;;;;;;;1.35;0.63;;;14.70;99.90;;;;;;5032716;28;20064;-72
2022/10/24 03:22:32;;;;;;;1.08;0.60;;;14.70;99.90;;;;;;5052483;28;20090;-72
2022/10/24 03:25:01;;;;;;;1.02;0.65;;;14.70;99.90;;;;;;5044387;28;20442;-72
2022/10/24 03:27:28;;;;;;;4.75;0.68;;;14.70;99.90;;;;;;5027668;28;20053;-72
2022/10/24 03:29:53;;;;;;;2.55;0.73;;;14.70;99.90;;;;;;5030432;28;20132;-73
2022/10/24 03:32:19;;;;;;;1.75;0.70;;;14.70;99.90;;;;;;5031140;28;20128;-72
2022/10/24 03:34:44;;;;;;;1.30;0.57;;;14.70;99.90;;;;;;5043786;28;20055;-72
2022/10/24 03:37:10;;;;;;;5.35;0.70;;;14.70;99.90;;;;;;5045651;28;20029;-72
2022/10/24 03:39:36;;;;;;;1.80;0.73;;;14.70;99.90;;;;;;5030953;28;20095;-72
2022/10/24 03:42:01;;;;;;;1.48;0.68;;;14.70;99.90;;;;;;5033780;28;20487;-72
2022/10/24 03:44:27;;;;;;;1.35;0.75;;;14.70;99.90;;;;;;5035004;28;20033;-72
2022/10/24 03:46:52;;;;;;;3.20;0.90;;;14.70;99.90;;;;;;5035358;28;20045;-72
2022/10/24 03:49:18;;;;;;;3.08;0.93;;;14.70;99.90;;;;;;5028870;28;20045;-72
2022/10/24 03:51:43;;;;;;;3.28;0.80;;;14.70;99.90;;;;;;5034146;28;20045;-72
2022/10/24 03:54:10;;;;;;;1.35;0.80;;;14.70;99.90;;;;;;5028189;28;20037;-72
2022/10/24 03:56:36;;;;;;;0.80;0.40;;;14.70;99.90;;;;;;5032830;28;20367;-72
2022/10/24 03:59:01;;;;;;;1.90;0.75;;;14.70;99.90;;;;;;5025926;28;20052;-72
2022/10/24 04:01:27;;;;;;;3.05;0.77;;;14.70;99.90;;;;;;5030430;28;20491;-72
2022/10/24 04:03:53;;;;;;;2.50;0.55;;;14.70;99.90;;;;;;5027457;28;20158;-73
2022/10/24 04:06:18;;;;;;;4.57;1.25;;;14.70;99.90;;;;;;5039823;28;20041;-72
2022/10/24 04:08:44;;;;;;;1.38;0.68;;;14.70;99.90;;;;;;5041104;28;20052;-72
2022/10/24 04:11:10;;;;;;;2.47;0.60;;;14.60;99.90;;;;;;5047525;28;20560;-72
2022/10/24 04:13:36;;;;;;;2.20;0.70;;;14.60;99.90;;;;;;5033130;28;20510;-72
2022/10/24 04:16:01;;;;;;;1.77;0.95;;;14.60;99.90;;;;;;5034185;28;20037;-72
2022/10/24 04:18:27;;;;;;;4.60;0.93;;;14.60;99.90;;;;;;5045351;28;20155;-72
2022/10/24 04:20:53;;;;;;;2.10;1.02;;;14.60;99.90;;;;;;5047336;28;20069;-72
2022/10/24 04:23:18;;;;;;;2.38;0.80;;;14.60;99.90;;;;;;5040605;28;20052;-72
2022/10/24 04:25:45;;;;;;;2.78;0.60;;;14.50;99.90;;;;;;5040799;28;20573;-72
2022/10/24 04:28:10;;;;;;;2.80;0.80;;;14.50;99.90;;;;;;5049824;28;20049;-72
2022/10/24 04:30:36;;;;;;;1.83;0.70;;;14.50;99.90;;;;;;5044283;28;20056;-73
2022/10/24 04:33:02;;;;;;;3.30;0.68;;;14.50;99.90;;;;;;5032064;28;20049;-73
2022/10/24 04:35:27;;;;;;;4.38;0.50;;;14.50;99.90;;;;;;5038506;28;20026;-72
2022/10/24 04:37:53;;;;;;;1.55;0.60;;;14.40;99.90;;;;;;5028743;28;20033;-72
2022/10/24 04:40:18;;;;;;;2.67;0.68;;;14.50;99.90;;;;;;5016533;28;20074;-73
2022/10/24 04:42:44;;;;;;;1.40;0.63;;;14.40;99.90;;;;;;5059152;28;20071;-72
2022/10/24 04:45:10;;;;;;;2.08;0.90;;;14.40;99.90;;;;;;5037956;28;20179;-72
2022/10/24 04:47:36;;;;;;;1.38;0.60;;;14.40;99.90;;;;;;5034228;28;20124;-72
2022/10/24 04:50:02;;;;;;;2.60;0.70;;;14.30;99.90;;;;;;5029858;28;20502;-72
2022/10/24 04:52:28;;;;;;;1.27;0.50;;;14.30;99.90;;;;;;5037600;28;20072;-72
2022/10/24 04:54:53;;;;;;;3.30;0.80;;;14.30;99.90;;;;;;5022323;28;20083;-72
2022/10/24 04:57:19;;;;;;;1.52;0.60;;;14.30;99.90;;;;;;5046356;28;20033;-72
2022/10/24 04:59:45;;;;;;;4.53;0.57;;;14.30;99.90;;;;;;5030419;28;20094;-72
2022/10/24 05:02:10;;;;;;;1.83;0.80;;;14.30;99.90;;;;;;5038676;28;20037;-72
2022/10/24 05:04:36;;;;;;;0.90;0.45;;;14.30;99.90;;;;;;5051121;28;20045;-72
2022/10/24 05:07:02;;;;;;;4.05;0.70;;;14.30;99.90;;;;;;5042265;28;20541;-72
2022/10/24 05:09:27;;;;;;;2.05;0.68;;;14.30;99.90;;;;;;5037426;28;20041;-72
2022/10/24 05:11:55;;;;;;;1.10;0.40;;;14.30;99.90;;;;;;5026888;28;20037;-73
2022/10/24 05:14:21;;;;;;;2.33;0.70;;;14.30;99.90;;;;;;5024666;28;20614;-72
2022/10/24 05:16:48;;;;;;;1.83;0.55;;;14.30;99.90;;;;;;5035861;28;20060;-72
2022/10/24 05:19:14;;;;;;;3.33;0.73;;;14.30;99.90;;;;;;5042828;28;20115;-72
2022/10/24 05:21:40;;;;;;;1.92;0.60;;;14.30;99.90;;;;;;5017908;28;20041;-72
2022/10/24 05:24:06;;;;;;;0.95;0.38;;;14.30;99.90;;;;;;5039319;28;20048;-72
2022/10/24 05:26:31;;;;;;;3.65;0.50;;;14.30;99.90;;;;;;5050602;28;20048;-72
2022/10/24 05:28:57;;;;;;;0.93;0.50;;;14.30;99.90;;;;;;5054178;28;20053;-72
2022/10/24 05:31:22;;;;;;;1.17;0.60;;;14.30;99.90;;;;;;5039549;28;20037;-73
2022/10/24 05:33:48;;;;;;;1.50;0.30;;;14.30;99.90;;;;;;5032841;28;20029;-72
2022/10/24 05:36:14;;;;;;;1.98;0.60;;;14.30;99.90;;;;;;5049034;28;20095;-73
2022/10/24 05:38:39;;;;;;;1.48;0.50;;;14.30;99.90;;;;;;5032926;28;22042;-72
2022/10/24 05:41:05;;;;;;;1.35;0.30;;;14.30;99.90;;;;;;5034969;28;20033;-72
2022/10/24 05:43:31;;;;;;;2.03;0.50;;;14.30;99.90;;;;;;5052907;28;20053;-73
2022/10/24 05:45:56;;;;;;;2.17;0.47;;;14.30;99.90;;;;;;5042978;28;20037;-72
2022/10/24 05:48:22;;;;;;;1.10;0.50;;;14.30;99.90;;;;;;5032419;28;20379;-72
2022/10/24 05:50:47;;;;;;;0.68;0.40;;;14.30;99.90;;;;;;5039077;28;20043;-72
2022/10/24 05:53:13;;;;;;;2.38;0.50;;;14.20;99.90;;;;;;5040926;28;20073;-72
2022/10/24 05:55:38;;;;;;;0.55;0.30;;;14.20;99.90;;;;;;5010400;28;20129;-72
2022/10/24 05:58:04;;;;;;;0.63;0.40;;;14.20;99.90;;;;;;5053797;28;20046;-72
2022/10/24 06:00:32;;;;;;;1.27;0.55;;;14.20;99.90;;;;;;5038972;28;20033;-72
2022/10/24 06:02:59;;;;;;;1.13;0.32;;;14.20;99.90;;;;;;5053689;28;20129;-72
2022/10/24 06:05:25;;;;;;;0.95;0.35;;;14.30;99.90;;;;;;5043020;28;20040;-72
2022/10/24 06:07:51;;;;;;;0.65;0.30;;;14.30;99.90;;;;;;5031313;28;20053;-72
2022/10/24 06:10:17;;;;;;;1.33;0.52;;;14.30;99.90;;;;;;5034634;28;20045;-72
2022/10/24 06:12:43;;;;;;;1.27;0.40;;;14.30;99.90;;;;;;5035788;28;20047;-72
2022/10/24 06:15:10;;;;;;;2.13;0.60;;;14.30;99.90;;;;;;5055252;28;20056;-72
2022/10/24 06:17:36;;;;;;;0.95;0.38;;;14.30;99.90;;;;;;5028012;28;20103;-71
2022/10/24 06:20:02;;;;;;;1.15;0.32;;;14.40;99.90;;;;;;5039453;28;20584;-72
2022/10/24 06:22:28;;;;;;;2.75;0.47;;;14.40;99.90;;;;;;5036178;28;20083;-72
2022/10/24 06:24:55;;;;;;;1.85;0.32;;;14.40;99.90;;;;;;5036463;28;20407;-72
2022/10/24 06:27:20;;;;;;;2.17;0.47;;;14.40;99.90;;;;;;5029932;28;20037;-72
2022/10/24 06:29:46;;;;;;;0.77;0.40;;;14.40;99.90;;;;;;5032179;28;20041;-72
2022/10/24 06:32:12;;;;;;;1.08;0.52;;;14.40;99.90;;;;;;5035528;28;20453;-72
2022/10/24 06:34:37;;;;;;;1.70;0.45;;;14.50;99.90;;;;;;5054210;28;20045;-72
2022/10/24 06:37:03;;;;;;;3.15;0.63;;;14.40;99.90;;;;;;5039837;28;20052;-72
2022/10/24 06:39:29;;;;;;;2.30;0.50;;;14.40;99.90;;;;;;5036713;28;20091;-72
2022/10/24 06:41:55;;;;;;;0.60;0.30;;;14.50;99.90;;;;;;5045476;28;20329;-72
2022/10/24 06:44:20;;;;;;;0.40;0.30;;;14.40;99.90;;;;;;5045073;28;20036;-72
2022/10/24 06:46:46;;;;;;;1.67;0.50;;;14.40;99.90;;;;;;5040937;28;20549;-72
2022/10/24 06:49:12;;;;;;;1.83;0.70;;;14.40;99.90;;;;;;5043872;28;20175;-72
2022/10/24 06:51:38;;;;;;;1.70;0.60;;;14.40;99.90;;;;;;5044700;28;20136;-72
2022/10/24 06:54:04;;;;;;;2.75;0.88;;;14.40;99.90;;;;;;5057430;28;20033;-72
2022/10/24 06:56:29;;;;;;;1.30;0.40;;;14.40;99.90;;;;;;5035524;28;20033;-72
2022/10/24 06:58:55;;;;;;;3.67;0.60;;;14.40;99.90;;;;;;5046951;28;20094;-72
2022/10/24 07:01:23;;;;;;;1.25;0.40;;;14.40;99.90;;;;;;5047521;28;20041;-72
2022/10/24 07:03:49;;;;;;;0.65;0.30;;;14.40;99.90;;;;;;5027403;28;20037;-72
2022/10/24 07:06:16;;;;;;;1.45;0.45;;;14.40;99.90;;;;;;5036073;28;20498;-72
2022/10/24 07:08:42;;;;;;;1.10;0.50;;;14.30;99.90;;;;;;5022902;28;20486;-72
2022/10/24 07:11:08;;;;;;;1.08;0.50;;;14.40;99.90;;;;;;5053607;28;20071;-72
2022/10/24 07:13:33;;;;;;;2.22;0.45;;;14.40;99.90;;;;;;5023437;28;20037;-72
2022/10/24 07:15:59;;;;;;;0.50;0.30;;;14.40;99.90;;;;;;5049112;28;20409;-72
2022/10/24 07:18:25;;;;;;;1.05;0.68;;;14.50;99.90;;;;;;5031277;28;20667;-72
2022/10/24 07:20:51;;;;;;;1.23;0.40;;;14.40;99.90;;;;;;5031577;28;20044;-71
2022/10/24 07:23:17;;;;;;;1.85;0.50;;;14.50;99.90;;;;;;5022335;28;20123;-72
2022/10/24 07:25:44;;;;;;;1.40;0.52;;;14.60;99.90;;;;;;5022518;28;20090;-72
2022/10/24 07:28:10;;;;;;;1.15;0.50;;;14.60;99.90;;;;;;5015101;28;20114;-72
2022/10/24 07:30:38;;;;;;;1.20;0.32;;;14.60;99.90;;;;;;5029166;28;20051;-72
2022/10/24 07:33:04;;;;;;;0.85;0.40;;;14.70;99.90;;;;;;5034317;28;20045;-72
2022/10/24 07:35:30;;;;;;;3.13;0.30;;;14.70;99.90;;;;;;5030969;28;20037;-72
2022/10/24 07:37:56;;;;;;;0.43;0.20;;;14.70;99.90;;;;;;5034926;28;20399;-72
2022/10/24 07:40:22;;;;;;;5.70;0.55;;;14.70;99.90;;;;;;5028527;28;20094;-72
2022/10/24 07:42:47;;;;;;;1.38;0.30;;;14.70;99.90;;;;;;5028215;28;20088;-71
2022/10/24 07:45:13;;;;;;;1.48;0.40;;;14.70;99.90;;;;;;5044104;28;20068;-71
2022/10/24 07:47:39;;;;;;;1.45;0.40;;;14.70;99.90;;;;;;5021501;28;20041;-72
2022/10/24 07:50:05;;;;;;;0.75;0.60;;;14.70;99.90;;;;;;5018670;28;20048;-72
2022/10/24 07:52:31;;;;;;;1.63;0.73;;;14.70;99.90;;;;;;5029452;28;20041;-72
2022/10/24 07:54:57;;;;;;;1.88;0.40;;;14.70;99.90;;;;;;5033372;28;20040;-72
2022/10/24 07:57:23;;;;;;;1.17;0.50;;;14.70;99.90;;;;;;5039826;28;20561;-72
2022/10/24 07:59:49;;;;;;;1.10;0.40;;;14.70;99.90;;;;;;5029478;28;20566;-72
2022/10/24 08:02:16;;;;;;;0.45;0.28;;;14.70;99.90;;;;;;5047175;28;20045;-72
2022/10/24 08:04:41;;;;;;;2.38;0.28;;;14.70;99.90;;;;;;5048761;28;20319;-72
2022/10/24 08:07:11;;;;;;;1.35;0.38;;;14.70;99.90;;;;;;5046454;28;20191;-72
2022/10/24 08:09:45;;;;;;;4.45;0.70;;;14.80;99.90;;;;;;5033891;28;20414;-72
2022/10/24 08:12:11;;;;;;;2.22;0.55;;;14.90;99.90;;;;;;5033603;28;20048;-72
2022/10/24 08:14:38;;;;;;;0.93;0.30;;;14.80;99.90;;;;;;5033662;28;20045;-72
2022/10/24 08:17:04;;;;;;;0.93;0.32;;;14.90;99.90;;;;;;5047427;28;20090;-72
2022/10/24 08:19:30;;;;;;;0.52;0.25;;;14.90;99.90;;;;;;5046612;28;20123;-72
2022/10/24 08:21:56;;;;;;;3.13;0.60;;;14.90;99.90;;;;;;5049653;28;20047;-72
2022/10/24 08:24:22;;;;;;;1.25;0.20;;;15.00;99.90;;;;;;5050063;28;20037;-72
2022/10/24 08:26:47;;;;;;;2.10;0.40;;;15.00;99.90;;;;;;5049488;28;20132;-72
2022/10/24 08:29:20;;;;;;;1.73;0.32;;;15.10;99.90;;;;;;5047734;28;20036;-72
2022/10/24 08:31:48;;;;;;;2.67;0.60;;;15.10;99.90;;;;;;5028608;28;20053;-72
2022/10/24 08:34:15;;;;;;;2.15;0.57;;;15.20;99.90;;;;;;5049466;28;20795;-72
2022/10/24 08:36:41;;;;;;;0.95;0.30;;;15.20;99.90;;;;;;5047754;28;20103;-72
2022/10/24 08:39:07;;;;;;;5.97;0.65;;;15.30;99.90;;;;;;5049977;28;20076;-72
2022/10/24 08:41:42;;;;;;;0.85;0.40;;;15.30;99.90;;;;;;5049745;28;20040;-72
2022/10/24 08:44:20;;;;;;;2.85;0.50;;;15.30;99.90;;;;;;5033242;28;20041;-72
2022/10/24 08:47:10;;;;;;;4.43;0.68;;;15.30;99.90;;;;;;5049089;28;20077;-72
2022/10/24 08:50:03;;;;;;;0.65;0.40;;;15.40;99.90;;;;;;5029060;28;20089;-72
2022/10/24 08:52:36;;;;;;;1.08;0.40;;;15.40;99.90;;;;;;5029080;28;20084;-72
2022/10/24 08:55:42;;;;;;;2.28;0.43;;;15.40;99.90;;;;;;5013046;28;20038;-72
2022/10/24 08:58:15;;;;;;;1.33;0.30;;;15.50;99.90;;;;;;5010786;28;20076;-72
2022/10/24 09:00:45;;;;;;;0.55;0.28;;;15.50;99.90;;;;;;5048911;28;20044;-72
2022/10/24 09:03:32;;;;;;;0.68;0.30;;;15.60;99.90;;;;;;5016082;28;20056;-72
2022/10/24 09:06:15;;;;;;;0.57;0.22;;;15.60;99.90;;;;;;5046921;28;20116;-72
2022/10/24 09:08:53;;;;;;;3.10;0.70;;;15.70;99.90;;;;;;5046501;28;20053;-72
2022/10/24 09:11:35;;;;;;;2.35;0.50;;;15.70;99.90;;;;;;5049613;28;20088;-72
2022/10/24 09:14:10;;;;;;;1.98;0.43;;;15.70;99.90;;;;;;5049324;28;20067;-72
2022/10/24 09:16:37;;;;;;;1.08;0.20;;;15.80;99.90;;;;;;5036949;28;20063;-72
2022/10/24 09:19:03;;;;;;;2.40;0.22;;;15.80;99.90;;;;;;5045906;28;20486;-72
2022/10/24 09:21:28;;;;;;;4.15;0.40;;;15.80;99.90;;;;;;5032374;28;20040;-72
2022/10/24 09:23:54;;;;;;;0.00;0.00;;;15.80;99.90;;;;;;5031504;28;20072;-72
2022/10/24 09:26:27;;;;;;;1.58;0.40;;;15.80;99.90;;;;;;5048398;28;20457;-72
2022/10/24 09:28:55;;;;;;;1.77;0.40;;;15.80;99.90;;;;;;5032808;28;20064;-73
2022/10/24 09:31:23;;;;;;;1.70;0.47;;;15.90;99.90;;;;;;5049502;28;20041;-72
2022/10/24 09:33:51;;;;;;;2.20;0.57;;;15.80;99.90;;;;;;5030815;28;20032;-72
2022/10/24 09:36:19;;;;;;;0.73;0.35;;;15.90;99.90;;;;;;5047879;28;20401;-72
2022/10/24 09:38:45;;;;;;;0.52;0.28;;;15.90;99.90;;;;;;5048582;28;20044;-73
2022/10/24 09:41:18;;;;;;;2.40;0.40;;;15.90;99.90;;;;;;5049222;28;20032;-72
2022/10/24 09:43:45;;;;;;;1.80;0.30;;;15.90;99.90;;;;;;5032005;28;20052;-72
2022/10/24 09:46:20;;;;;;;1.90;0.30;;;15.90;99.90;;;;;;5046097;28;20127;-72
2022/10/24 09:49:17;;;;;;;3.10;0.40;;;15.90;99.90;;;;;;5037067;28;20140;-80
2022/10/24 09:52:04;;;;;;;0.75;0.15;;;15.90;99.90;;;;;;5028936;28;20099;-72
2022/10/24 09:54:31;;;;;;;3.00;0.63;;;15.90;99.90;;;;;;5036099;28;20585;-72
2022/10/24 09:57:21;;;;;;;0.30;0.20;;;15.90;99.90;;;;;;5030267;28;20041;-71
2022/10/24 10:00:00;;;;;;;1.10;0.50;;;16.00;99.90;;;;;;5033564;28;20045;-72
2022/10/24 10:02:27;;;;;;;1.27;0.28;;;16.00;99.90;;;;;;5034223;28;20080;-72
2022/10/24 10:05:02;;;;;;;4.00;0.45;;;16.00;99.90;;;;;;5026745;28;20045;-72
2022/10/24 10:07:33;;;;;;;1.38;0.52;;;16.10;99.90;;;;;;5031369;28;20053;-72
2022/10/24 10:10:22;;;;;;;1.27;0.43;;;16.20;99.90;;;;;;5030928;28;20068;-72
2022/10/24 10:13:14;;;;;;;6.32;1.10;;;16.20;99.90;;;;;;5027318;28;20049;-73
2022/10/24 10:15:42;;;;;;;0.30;0.20;;;16.30;99.90;;;;;;5030924;28;20091;-72
2022/10/24 10:18:37;;;;;;;2.92;0.50;;;16.30;99.90;;;;;;5033262;28;20498;-72
2022/10/24 10:21:05;;;;;;;3.30;0.85;;;16.40;99.90;;;;;;5031342;28;20518;-72
2022/10/24 10:23:46;;;;;;;0.43;0.20;;;16.30;99.90;;;;;;5016259;28;20049;-72
2022/10/24 10:26:17;;;;;;;2.13;0.40;;;16.30;99.90;;;;;;5026839;28;20041;-72
2022/10/24 10:28:52;;;;;;;1.15;0.20;;;16.40;99.90;;;;;;5034697;28;20778;-73
2022/10/24 10:31:21;;;;;;;0.75;0.30;;;16.40;99.90;;;;;;5029599;28;20094;-72
2022/10/24 10:34:05;;;;;;;0.70;0.20;;;16.40;99.90;;;;;;5024532;28;20582;-73
2022/10/24 10:36:45;;;;;;;2.08;0.45;;;16.50;99.90;;;;;;5015069;28;20040;-72
2022/10/24 10:39:26;;;;;;;1.13;0.30;;;16.40;99.90;;;;;;5030699;28;20041;-73
2022/10/24 10:42:15;;;;;;;2.08;0.40;;;16.40;99.90;;;;;;5032076;28;20049;-72
2022/10/24 10:45:01;;;;;;;1.00;0.13;;;16.40;99.90;;;;;;5034327;28;20041;-73
2022/10/24 10:47:42;;;;;;;2.38;0.40;;;16.30;99.90;;;;;;5015958;28;20037;-72
2022/10/24 10:50:29;;;;;;;0.28;0.20;;;16.30;99.90;;;;;;5034211;28;20527;-72
2022/10/24 10:53:07;;;;;;;1.90;0.22;;;16.30;99.90;;;;;;5033955;28;20406;-72
2022/10/24 10:55:52;;;;;;;1.65;0.30;;;16.20;99.90;;;;;;5034725;28;20055;-72
2022/10/24 10:58:28;;;;;;;0.52;0.20;;;16.30;99.90;;;;;;5034204;28;20033;-72
2022/10/24 11:01:28;;;;;;;2.40;0.55;;;16.30;99.90;;;;;;5033474;28;20032;-72
2022/10/24 11:04:13;;;;;;;0.50;0.20;;;16.20;99.90;;;;;;5016863;28;20163;-72
2022/10/24 11:07:16;;;;;;;0.82;0.20;;;16.20;99.90;;;;;;5035829;28;20033;-72
2022/10/24 11:09:50;;;;;;;4.47;0.40;;;16.30;99.90;;;;;;5030839;28;20475;-72
2022/10/24 11:12:27;;;;;;;0.10;0.10;;;16.30;99.90;;;;;;4997294;28;20514;-72
2022/10/24 11:15:03;;;;;;;0.88;0.30;;;16.30;99.90;;;;;;5008466;28;20040;-72
2022/10/24 11:17:34;;;;;;;0.40;0.15;;;16.30;99.90;;;;;;5017722;28;20072;-72
2022/10/24 11:20:15;;;;;;;0.20;0.10;;;16.30;99.90;;;;;;5023631;28;20037;-72
2022/10/24 11:22:59;;;;;;;1.95;0.30;;;16.30;99.90;;;;;;5037524;28;20037;-72
2022/10/24 11:25:39;;;;;;;0.20;0.20;;;16.40;99.90;;;;;;5030799;28;20033;-72
2022/10/24 11:28:32;;;;;;;3.05;0.45;;;16.40;99.90;;;;;;5036152;28;20047;-72
2022/10/24 11:31:09;;;;;;;2.03;0.32;;;16.50;99.90;;;;;;5039633;28;20040;-72
2022/10/24 11:33:52;;;;;;;0.80;0.20;;;16.50;99.90;;;;;;5035000;28;20132;-72
2022/10/24 11:36:49;;;;;;;0.20;0.10;;;16.50;99.90;;;;;;5040015;28;20036;-72
2022/10/24 11:39:41;;;;;;;0.50;0.10;;;16.50;99.90;;;;;;5017732;28;20040;-72
2022/10/24 11:42:45;;;;;;;0.95;0.20;;;16.40;99.90;;;;;;5039069;28;20128;-72
2022/10/24 11:45:14;;;;;;;0.40;0.20;;;16.50;99.90;;;;;;5019595;28;20147;-72
2022/10/24 11:47:51;;;;;;;0.93;0.30;;;16.50;99.90;;;;;;5023634;28;20047;-72
2022/10/24 11:50:23;;;;;;;0.52;0.30;;;16.50;99.90;;;;;;5037344;28;20072;-72
2022/10/24 11:52:51;;;;;;;0.70;0.30;;;16.60;99.90;;;;;;5039196;28;20041;-72
2022/10/24 11:55:25;;;;;;;0.68;0.28;;;16.60;99.90;;;;;;5031372;28;20044;-72
2022/10/24 11:57:55;;;;;;;0.63;0.35;;;16.80;99.90;;;;;;5032025;28;20037;-72
2022/10/24 12:00:32;;;;;;;0.77;0.25;;;16.80;99.90;;;;;;5055182;28;20072;-72
2022/10/24 12:03:19;;;;;;;0.57;0.28;;;16.70;99.90;;;;;;5033712;28;20052;-73
2022/10/24 12:06:05;;;;;;;2.20;0.55;;;16.70;99.90;;;;;;5015090;28;20045;-72
2022/10/24 12:08:50;;;;;;;0.43;0.17;;;16.70;99.90;;;;;;5035256;28;20045;-72
2022/10/24 12:11:24;;;;;;;1.17;0.10;;;16.70;99.90;;;;;;5036136;28;20172;-72
2022/10/24 12:14:23;;;;;;;0.47;0.28;;;16.70;99.90;;;;;;5031938;28;20041;-73
2022/10/24 12:17:29;;;;;;;1.85;0.45;;;16.60;99.90;;;;;;5013197;28;20190;-72
2022/10/24 12:19:55;;;;;;;1.10;0.30;;;16.60;99.90;;;;;;5032958;28;20470;-72
2022/10/24 12:22:33;;;;;;;1.05;0.10;;;16.60;99.90;;;;;;5037582;28;20103;-72
2022/10/24 12:25:30;;;;;;;1.13;0.30;;;16.60;99.90;;;;;;5037795;28;20044;-73
2022/10/24 12:28:26;;;;;;;3.13;0.45;;;16.50;99.90;;;;;;5038269;28;20525;-73
2022/10/24 12:31:10;;;;;;;3.55;0.38;;;16.50;99.90;;;;;;5031039;28;20040;-72
2022/10/24 12:33:35;;;;;;;1.25;0.30;;;16.50;99.90;;;;;;5032270;28;20041;-72
2022/10/24 12:36:01;;;;;;;0.55;0.20;;;16.50;99.90;;;;;;5033317;28;20452;-72
2022/10/24 12:38:27;;;;;;;0.10;0.10;;;16.40;99.90;;;;;;5034672;28;20126;-72
2022/10/24 12:41:04;;;;;;;0.35;0.25;;;16.40;99.90;;;;;;5037713;28;20037;-72
2022/10/24 12:43:36;;;;;;;0.35;0.13;;;16.40;99.90;;;;;;5040436;28;20047;-72
2022/10/24 12:46:26;;;;;;;1.38;0.20;;;16.40;99.90;;;;;;5038291;28;20117;-73
2022/10/24 12:48:57;;;;;;;1.08;0.38;;;16.40;99.90;;;;;;5039701;28;20057;-72
2022/10/24 12:51:52;;;;;;;2.05;0.50;;;16.50;99.90;;;;;;5039349;28;20045;-72
2022/10/24 12:54:38;;;;;;;0.60;0.40;;;16.40;99.90;;;;;;5035341;28;20560;-72
2022/10/24 12:57:04;;;;;;;0.47;0.15;;;16.40;99.90;;;;;;5032388;28;20041;-72
2022/10/24 12:59:44;;;;;;;0.22;0.20;;;16.40;99.90;;;;;;5022242;28;20040;-72
2022/10/24 13:02:10;;;;;;;0.13;0.10;;;16.30;99.90;;;;;;5035952;28;20087;-72
2022/10/24 13:04:38;;;;;;;1.10;0.35;;;16.30;99.90;;;;;;5055566;28;20098;-72
2022/10/24 13:07:23;;;;;;;1.88;0.45;;;16.30;99.90;;;;;;5032375;28;20045;-73
2022/10/24 13:09:49;;;;;;;1.65;0.30;;;16.30;99.90;;;;;;5037219;28;20048;-72
2022/10/24 13:12:52;;;;;;;2.60;0.20;;;16.20;99.90;;;;;;5032752;28;20542;-72